WZZ8872 LHBP-LIEA
Flight info
| Callsign | WZZ8872 |
|---|---|
| Flight time | 1h 50m |
| Altitude | 38000 |
| Route | GILEP DCT ZOLKU DCT SUNIS DCT INSAX DCT GOLVA DCT PUL DCT BAXON/N0433F370 DCT UNUMU DCT ETPOK DCT MEDAL DCT MAMAR DCT BATOX DCT ROMPO/N0348F190 L5 MINKA |
| Aircraft | A320/M-SDE1E2E3FGIJ1J4RWXY/LB1 |
Departure
| Time | 2026-05-04 07:01 |
|---|---|
| Airport | Budapest Liszt Ferenc International Airport (LHBP) |
Arrival
| Time | 2026-05-04 08:52 |
|---|---|
| Airport | Alghero-Fertilia Airport (LIEA) |
| Time | Latitude | Longitude | Altitude | Speed | Heading |
|---|---|---|---|---|---|
| 2026-05-04 06:31 | 47.43576 | 19.26054 | 458 ft | 0 kts | 312° |
| 2026-05-04 06:55 | 47.43581 | 19.26047 | 455 ft | 4 kts | 312° |
| 2026-05-04 06:56 | 47.43612 | 19.26014 | 457 ft | 7 kts | 347° |
| 2026-05-04 06:57 | 47.44001 | 19.26269 | 460 ft | 0 kts | 42° |
| 2026-05-04 06:58 | 47.44002 | 19.26270 | 460 ft | 2 kts | 42° |
| 2026-05-04 06:58 | 47.44030 | 19.26309 | 462 ft | 9 kts | 46° |
| 2026-05-04 06:58 | 47.44065 | 19.26401 | 467 ft | 11 kts | 73° |
| 2026-05-04 06:59 | 47.44071 | 19.26508 | 471 ft | 11 kts | 104° |
| 2026-05-04 06:59 | 47.44047 | 19.26561 | 470 ft | 1 kts | 133° |
| 2026-05-04 06:59 | 47.43985 | 19.26659 | 470 ft | 43 kts | 132° |
| 2026-05-04 06:59 | 47.43622 | 19.27245 | 472 ft | 108 kts | 132° |
| 2026-05-04 07:01 | 47.38917 | 19.38116 | 3252 ft | 236 kts | 123° |
| 2026-05-04 07:01 | 47.37920 | 19.40086 | 3859 ft | 247 kts | 147° |
| 2026-05-04 07:02 | 47.36305 | 19.40863 | 4614 ft | 250 kts | 183° |
| 2026-05-04 07:02 | 47.34675 | 19.40001 | 5489 ft | 256 kts | 218° |
| 2026-05-04 07:02 | 47.33552 | 19.37924 | 6351 ft | 265 kts | 239° |
| 2026-05-04 07:02 | 47.32748 | 19.35479 | 7150 ft | 271 kts | 245° |
| 2026-05-04 07:03 | 47.31982 | 19.32902 | 7944 ft | 278 kts | 244° |
| 2026-05-04 07:03 | 47.31148 | 19.30299 | 8726 ft | 284 kts | 242° |
| 2026-05-04 07:03 | 47.30219 | 19.27692 | 9507 ft | 290 kts | 240° |
| 2026-05-04 07:03 | 47.29205 | 19.25086 | 10231 ft | 298 kts | 238° |
| 2026-05-04 07:04 | 47.28082 | 19.22367 | 10510 ft | 322 kts | 237° |
| 2026-05-04 07:04 | 47.26857 | 19.19501 | 10924 ft | 336 kts | 237° |
| 2026-05-04 07:04 | 47.25578 | 19.16566 | 11608 ft | 342 kts | 236° |
| 2026-05-04 07:04 | 47.24282 | 19.13612 | 12339 ft | 345 kts | 236° |
| 2026-05-04 07:05 | 47.22970 | 19.10620 | 13073 ft | 349 kts | 236° |
| 2026-05-04 07:05 | 47.21752 | 19.07562 | 13771 ft | 353 kts | 245° |
| 2026-05-04 07:05 | 47.21068 | 19.04079 | 14414 ft | 357 kts | 263° |
| 2026-05-04 07:05 | 47.21088 | 19.00413 | 15031 ft | 360 kts | 280° |
| 2026-05-04 07:06 | 47.23201 | 18.93800 | 16270 ft | 363 kts | 309° |
| 2026-05-04 07:06 | 47.24775 | 18.90869 | 16924 ft | 365 kts | 309° |
| 2026-05-04 07:06 | 47.26358 | 18.87918 | 17586 ft | 368 kts | 309° |
| 2026-05-04 07:07 | 47.27949 | 18.84946 | 18240 ft | 370 kts | 309° |
| 2026-05-04 07:08 | 47.39309 | 18.63485 | 22095 ft | 388 kts | 309° |
| 2026-05-04 07:09 | 47.40885 | 18.60231 | 22604 ft | 392 kts | 301° |
| 2026-05-04 07:09 | 47.42058 | 18.56639 | 23117 ft | 396 kts | 291° |
| 2026-05-04 07:09 | 47.42885 | 18.52738 | 23626 ft | 399 kts | 288° |
| 2026-05-04 07:09 | 47.43683 | 18.48795 | 24067 ft | 401 kts | 288° |
| 2026-05-04 07:10 | 47.44488 | 18.44830 | 24510 ft | 403 kts | 288° |
| 2026-05-04 07:10 | 47.45298 | 18.40851 | 24958 ft | 405 kts | 288° |
| 2026-05-04 07:12 | 47.50652 | 18.12389 | 27898 ft | 418 kts | 284° |
| 2026-05-04 07:12 | 47.51306 | 18.08179 | 28296 ft | 420 kts | 285° |
| 2026-05-04 07:12 | 47.51969 | 18.03953 | 28693 ft | 423 kts | 285° |
| 2026-05-04 07:12 | 47.52637 | 17.99760 | 29087 ft | 425 kts | 285° |
| 2026-05-04 07:13 | 47.53330 | 17.95484 | 29484 ft | 427 kts | 285° |
| 2026-05-04 07:13 | 47.54031 | 17.91201 | 29888 ft | 429 kts | 285° |
| 2026-05-04 07:13 | 47.54678 | 17.86864 | 30251 ft | 433 kts | 280° |
| 2026-05-04 07:14 | 47.52517 | 17.69304 | 31716 ft | 445 kts | 250° |
| 2026-05-04 07:14 | 47.51338 | 17.65071 | 32216 ft | 442 kts | 250° |
| 2026-05-04 07:15 | 47.50173 | 17.60874 | 32743 ft | 440 kts | 250° |
| 2026-05-04 07:15 | 47.49012 | 17.56695 | 33254 ft | 438 kts | 250° |
| 2026-05-04 07:15 | 47.47857 | 17.52539 | 33771 ft | 435 kts | 250° |
| 2026-05-04 07:15 | 47.46720 | 17.48461 | 34256 ft | 433 kts | 250° |
| 2026-05-04 07:16 | 47.45556 | 17.44303 | 34682 ft | 431 kts | 249° |
| 2026-05-04 07:16 | 47.44422 | 17.40263 | 35077 ft | 430 kts | 249° |
| 2026-05-04 07:16 | 47.43273 | 17.36177 | 35445 ft | 429 kts | 249° |
| 2026-05-04 07:16 | 47.42126 | 17.32104 | 35811 ft | 428 kts | 249° |
| 2026-05-04 07:17 | 47.40980 | 17.28040 | 36160 ft | 427 kts | 249° |
| 2026-05-04 07:17 | 47.39835 | 17.23988 | 36516 ft | 426 kts | 249° |
| 2026-05-04 07:17 | 47.38709 | 17.20008 | 36847 ft | 425 kts | 249° |
| 2026-05-04 07:17 | 47.37568 | 17.15981 | 37178 ft | 425 kts | 249° |
| 2026-05-04 07:18 | 47.36425 | 17.11958 | 37494 ft | 424 kts | 249° |
| 2026-05-04 07:18 | 47.35284 | 17.07945 | 37814 ft | 423 kts | 249° |
| 2026-05-04 07:18 | 47.34143 | 17.03939 | 38058 ft | 423 kts | 249° |
| 2026-05-04 07:18 | 47.32999 | 16.99937 | 38103 ft | 425 kts | 249° |
| 2026-05-04 07:19 | 47.30699 | 16.91907 | 38102 ft | 425 kts | 249° |
| 2026-05-04 07:19 | 47.28411 | 16.83929 | 38103 ft | 424 kts | 249° |
| 2026-05-04 07:20 | 47.26108 | 16.75920 | 38103 ft | 424 kts | 249° |
| 2026-05-04 07:20 | 47.23799 | 16.67926 | 38107 ft | 424 kts | 248° |
| 2026-05-04 07:22 | 47.14483 | 16.36083 | 38119 ft | 424 kts | 244° |
| 2026-05-04 07:23 | 47.11280 | 16.28772 | 38122 ft | 426 kts | 237° |
| 2026-05-04 07:23 | 47.07942 | 16.21661 | 38132 ft | 426 kts | 237° |
| 2026-05-04 07:24 | 47.04576 | 16.14483 | 38119 ft | 426 kts | 237° |
| 2026-05-04 07:24 | 47.01078 | 16.07468 | 38131 ft | 427 kts | 229° |
| 2026-05-04 07:26 | 46.83927 | 15.83387 | 38125 ft | 428 kts | 226° |
| 2026-05-04 07:27 | 46.79623 | 15.77380 | 38129 ft | 427 kts | 226° |
| 2026-05-04 07:27 | 46.75318 | 15.71389 | 38115 ft | 427 kts | 226° |
| 2026-05-04 07:28 | 46.70977 | 15.65454 | 38112 ft | 428 kts | 221° |
| 2026-05-04 07:28 | 46.66118 | 15.60501 | 38106 ft | 429 kts | 217° |
| 2026-05-04 07:29 | 46.61166 | 15.55614 | 38101 ft | 429 kts | 217° |
| 2026-05-04 07:29 | 46.56246 | 15.50752 | 38101 ft | 429 kts | 217° |
| 2026-05-04 07:30 | 46.51308 | 15.45885 | 38105 ft | 428 kts | 217° |
| 2026-05-04 07:30 | 46.46370 | 15.41028 | 38105 ft | 428 kts | 217° |
| 2026-05-04 07:31 | 46.42261 | 15.36995 | 38112 ft | 428 kts | 217° |
| 2026-05-04 07:33 | 46.22534 | 15.17727 | 38133 ft | 427 kts | 217° |
| 2026-05-04 07:33 | 46.17620 | 15.12956 | 38137 ft | 427 kts | 217° |
| 2026-05-04 07:34 | 46.12678 | 15.08164 | 38138 ft | 427 kts | 217° |
| 2026-05-04 07:34 | 46.07737 | 15.03379 | 38140 ft | 427 kts | 217° |
| 2026-05-04 07:35 | 46.02829 | 14.98640 | 38140 ft | 427 kts | 217° |
| 2026-05-04 07:35 | 45.97877 | 14.93878 | 38145 ft | 427 kts | 217° |
| 2026-05-04 07:36 | 45.92923 | 14.89112 | 38150 ft | 427 kts | 217° |
| 2026-05-04 07:38 | 45.73169 | 14.70242 | 38141 ft | 427 kts | 217° |
| 2026-05-04 07:38 | 45.68217 | 14.65533 | 38144 ft | 427 kts | 217° |
| 2026-05-04 07:39 | 45.63260 | 14.60837 | 38145 ft | 426 kts | 217° |
| 2026-05-04 07:39 | 45.58305 | 14.56152 | 38141 ft | 426 kts | 217° |
| 2026-05-04 07:40 | 45.53386 | 14.51508 | 38147 ft | 426 kts | 217° |
| 2026-05-04 07:40 | 45.48436 | 14.46847 | 38150 ft | 426 kts | 217° |
| 2026-05-04 07:41 | 45.43485 | 14.42187 | 38151 ft | 425 kts | 217° |
| 2026-05-04 07:41 | 45.38571 | 14.37576 | 38152 ft | 425 kts | 217° |
| 2026-05-04 07:42 | 45.33627 | 14.32949 | 38150 ft | 424 kts | 216° |
| 2026-05-04 07:42 | 45.28694 | 14.28333 | 38145 ft | 424 kts | 216° |
| 2026-05-04 07:43 | 45.23791 | 14.23751 | 38139 ft | 423 kts | 216° |
| 2026-05-04 07:43 | 45.18863 | 14.19162 | 38142 ft | 424 kts | 216° |
| 2026-05-04 07:44 | 45.13913 | 14.14575 | 38141 ft | 423 kts | 216° |
| 2026-05-04 07:44 | 45.09002 | 14.10040 | 38141 ft | 423 kts | 216° |
| 2026-05-04 07:45 | 45.04075 | 14.05478 | 38149 ft | 423 kts | 216° |
| 2026-05-04 07:45 | 44.99144 | 14.00919 | 38149 ft | 423 kts | 216° |
| 2026-05-04 07:46 | 44.94208 | 13.96380 | 38148 ft | 423 kts | 216° |
| 2026-05-04 07:46 | 44.89302 | 13.91878 | 38150 ft | 423 kts | 216° |
| 2026-05-04 07:47 | 44.84400 | 13.87250 | 38143 ft | 423 kts | 217° |
| 2026-05-04 07:49 | 44.64978 | 13.68506 | 38130 ft | 423 kts | 217° |
| 2026-05-04 07:49 | 44.60129 | 13.63883 | 38128 ft | 424 kts | 217° |
| 2026-05-04 07:50 | 44.55250 | 13.59227 | 38123 ft | 424 kts | 217° |
| 2026-05-04 07:50 | 44.52797 | 13.56896 | 37851 ft | 424 kts | 217° |
| 2026-05-04 07:50 | 44.50355 | 13.54578 | 37575 ft | 423 kts | 217° |
| 2026-05-04 07:51 | 44.47914 | 13.52260 | 37302 ft | 423 kts | 217° |
| 2026-05-04 07:51 | 44.45473 | 13.49944 | 37089 ft | 423 kts | 217° |
| 2026-05-04 07:51 | 44.40521 | 13.45441 | 37118 ft | 426 kts | 211° |
| 2026-05-04 07:52 | 44.35335 | 13.41510 | 37122 ft | 426 kts | 211° |
| 2026-05-04 07:52 | 44.30120 | 13.37550 | 37123 ft | 426 kts | 211° |
| 2026-05-04 07:54 | 44.09293 | 13.21803 | 37131 ft | 425 kts | 211° |
| 2026-05-04 07:55 | 44.04085 | 13.17876 | 37126 ft | 425 kts | 211° |
| 2026-05-04 07:55 | 43.98914 | 13.13991 | 37126 ft | 425 kts | 211° |
| 2026-05-04 07:56 | 43.93704 | 13.10091 | 37131 ft | 425 kts | 211° |
| 2026-05-04 07:56 | 43.88493 | 13.06203 | 37130 ft | 425 kts | 211° |
| 2026-05-04 07:57 | 43.83283 | 13.02321 | 37131 ft | 425 kts | 211° |
| 2026-05-04 07:57 | 43.78110 | 12.98458 | 37129 ft | 425 kts | 211° |
| 2026-05-04 07:58 | 43.72896 | 12.94570 | 37134 ft | 425 kts | 211° |
| 2026-05-04 07:58 | 43.67681 | 12.90703 | 37137 ft | 425 kts | 211° |
| 2026-05-04 07:59 | 43.62455 | 12.86840 | 37137 ft | 425 kts | 211° |
| 2026-05-04 07:59 | 43.57263 | 12.83012 | 37140 ft | 425 kts | 210° |
| 2026-05-04 08:00 | 43.52033 | 12.79156 | 37142 ft | 425 kts | 210° |
| 2026-05-04 08:02 | 43.31568 | 12.62992 | 37174 ft | 423 kts | 214° |
| 2026-05-04 08:02 | 43.26623 | 12.58722 | 37195 ft | 422 kts | 214° |
| 2026-05-04 08:03 | 43.21597 | 12.54495 | 37183 ft | 422 kts | 213° |
| 2026-05-04 08:03 | 43.16579 | 12.50314 | 37190 ft | 422 kts | 213° |
| 2026-05-04 08:04 | 43.11589 | 12.46150 | 37202 ft | 422 kts | 213° |
| 2026-05-04 08:04 | 43.06576 | 12.41954 | 37188 ft | 423 kts | 213° |
| 2026-05-04 08:05 | 43.01550 | 12.37756 | 37187 ft | 423 kts | 213° |
| 2026-05-04 08:05 | 42.96522 | 12.33561 | 37187 ft | 423 kts | 213° |
| 2026-05-04 08:06 | 42.91511 | 12.29395 | 37183 ft | 424 kts | 213° |
| 2026-05-04 08:06 | 42.86454 | 12.25201 | 37183 ft | 424 kts | 213° |
| 2026-05-04 08:08 | 42.67309 | 12.06689 | 37175 ft | 422 kts | 222° |
| 2026-05-04 08:11 | 42.47044 | 11.83927 | 37171 ft | 418 kts | 222° |
| 2026-05-04 08:11 | 42.40306 | 11.76415 | 37174 ft | 417 kts | 223° |
| 2026-05-04 08:12 | 42.35823 | 11.71411 | 37175 ft | 417 kts | 223° |
| 2026-05-04 08:12 | 42.31354 | 11.66448 | 37176 ft | 417 kts | 223° |
| 2026-05-04 08:13 | 42.26866 | 11.61478 | 37175 ft | 417 kts | 223° |
| 2026-05-04 08:13 | 42.22373 | 11.56505 | 37176 ft | 417 kts | 223° |
| 2026-05-04 08:14 | 42.17915 | 11.51571 | 37176 ft | 417 kts | 223° |
| 2026-05-04 08:16 | 42.00769 | 11.32619 | 37164 ft | 416 kts | 224° |
| 2026-05-04 08:16 | 41.96342 | 11.27610 | 37165 ft | 415 kts | 224° |
| 2026-05-04 08:17 | 41.91914 | 11.22628 | 37164 ft | 415 kts | 224° |
| 2026-05-04 08:17 | 41.87478 | 11.17673 | 37161 ft | 414 kts | 224° |
| 2026-05-04 08:19 | 41.71741 | 10.95803 | 37157 ft | 406 kts | 234° |
| 2026-05-04 08:20 | 41.68117 | 10.89983 | 37154 ft | 406 kts | 234° |
| 2026-05-04 08:20 | 41.64507 | 10.84179 | 37152 ft | 405 kts | 234° |
| 2026-05-04 08:21 | 41.60922 | 10.78422 | 37148 ft | 405 kts | 234° |
| 2026-05-04 08:21 | 41.57310 | 10.72647 | 37150 ft | 404 kts | 234° |
| 2026-05-04 08:22 | 41.53693 | 10.66890 | 37142 ft | 403 kts | 234° |
| 2026-05-04 08:24 | 41.39324 | 10.44048 | 37149 ft | 400 kts | 234° |
| 2026-05-04 08:24 | 41.35729 | 10.38378 | 37134 ft | 400 kts | 235° |
| 2026-05-04 08:25 | 41.32143 | 10.32720 | 37137 ft | 399 kts | 235° |
| 2026-05-04 08:25 | 41.28585 | 10.27111 | 37128 ft | 399 kts | 235° |
| 2026-05-04 08:27 | 41.17414 | 10.02490 | 35447 ft | 386 kts | 251° |
| 2026-05-04 08:28 | 41.16435 | 9.99181 | 34975 ft | 384 kts | 251° |
| 2026-05-04 08:28 | 41.15464 | 9.95894 | 34506 ft | 382 kts | 251° |
| 2026-05-04 08:28 | 41.14495 | 9.92615 | 34018 ft | 380 kts | 251° |
| 2026-05-04 08:28 | 41.13530 | 9.89355 | 33509 ft | 378 kts | 251° |
| 2026-05-04 08:29 | 41.12573 | 9.86127 | 33033 ft | 374 kts | 251° |
| 2026-05-04 08:29 | 41.11622 | 9.82923 | 32570 ft | 371 kts | 251° |
| 2026-05-04 08:29 | 41.10680 | 9.79748 | 32085 ft | 368 kts | 251° |
| 2026-05-04 08:31 | 41.04050 | 9.57741 | 28513 ft | 354 kts | 250° |
| 2026-05-04 08:33 | 40.97883 | 9.37444 | 26033 ft | 327 kts | 250° |
| 2026-05-04 08:33 | 40.97034 | 9.34665 | 25686 ft | 324 kts | 250° |
| 2026-05-04 08:35 | 40.91141 | 9.15426 | 22792 ft | 321 kts | 249° |
| 2026-05-04 08:35 | 40.90301 | 9.12695 | 22372 ft | 320 kts | 249° |
| 2026-05-04 08:35 | 40.89477 | 9.10007 | 21964 ft | 318 kts | 249° |
| 2026-05-04 08:35 | 40.88645 | 9.07298 | 21544 ft | 317 kts | 249° |
| 2026-05-04 08:37 | 40.83651 | 8.91171 | 19048 ft | 315 kts | 249° |
| 2026-05-04 08:37 | 40.82819 | 8.88493 | 18634 ft | 315 kts | 248° |
| 2026-05-04 08:37 | 40.81998 | 8.85852 | 18205 ft | 315 kts | 248° |
| 2026-05-04 08:38 | 40.81164 | 8.83182 | 17769 ft | 313 kts | 248° |
| 2026-05-04 08:38 | 40.80322 | 8.80523 | 17358 ft | 312 kts | 248° |
| 2026-05-04 08:38 | 40.79479 | 8.77884 | 16951 ft | 311 kts | 248° |
| 2026-05-04 08:40 | 40.73645 | 8.59659 | 14074 ft | 307 kts | 247° |
| 2026-05-04 08:40 | 40.72809 | 8.57064 | 13638 ft | 307 kts | 247° |
| 2026-05-04 08:40 | 40.71986 | 8.54507 | 13218 ft | 306 kts | 247° |
| 2026-05-04 08:41 | 40.71158 | 8.51935 | 12809 ft | 304 kts | 247° |
| 2026-05-04 08:41 | 40.70333 | 8.49371 | 12402 ft | 303 kts | 247° |
| 2026-05-04 08:41 | 40.69511 | 8.46815 | 11990 ft | 302 kts | 247° |
| 2026-05-04 08:41 | 40.68692 | 8.44267 | 11585 ft | 301 kts | 247° |
| 2026-05-04 08:42 | 40.67873 | 8.41729 | 11217 ft | 300 kts | 246° |
| 2026-05-04 08:42 | 40.67073 | 8.39259 | 11068 ft | 285 kts | 246° |
| 2026-05-04 08:42 | 40.66301 | 8.36872 | 10622 ft | 282 kts | 246° |
| 2026-05-04 08:42 | 40.65546 | 8.34534 | 10165 ft | 280 kts | 246° |
| 2026-05-04 08:43 | 40.64618 | 8.32307 | 9647 ft | 277 kts | 230° |
| 2026-05-04 08:43 | 40.63110 | 8.30744 | 9221 ft | 278 kts | 206° |
| 2026-05-04 08:43 | 40.61232 | 8.30134 | 8836 ft | 282 kts | 182° |
| 2026-05-04 08:43 | 40.59293 | 8.30532 | 8499 ft | 283 kts | 169° |
| 2026-05-04 08:44 | 40.57372 | 8.31129 | 8182 ft | 280 kts | 169° |
| 2026-05-04 08:44 | 40.55491 | 8.31703 | 7715 ft | 280 kts | 169° |
| 2026-05-04 08:46 | 40.43446 | 8.29224 | 5923 ft | 225 kts | 207° |
| 2026-05-04 08:46 | 40.42322 | 8.27979 | 5820 ft | 211 kts | 238° |
| 2026-05-04 08:46 | 40.41897 | 8.26143 | 5581 ft | 217 kts | 270° |
| 2026-05-04 08:46 | 40.42327 | 8.24217 | 5211 ft | 224 kts | 293° |
| 2026-05-04 08:47 | 40.42985 | 8.22371 | 4831 ft | 221 kts | 293° |
| 2026-05-04 08:47 | 40.43670 | 8.20588 | 4452 ft | 218 kts | 304° |
| 2026-05-04 08:47 | 40.44826 | 8.19342 | 4095 ft | 217 kts | 337° |
| 2026-05-04 08:47 | 40.46289 | 8.19078 | 3759 ft | 213 kts | 9° |
| 2026-05-04 08:48 | 40.47661 | 8.19732 | 3443 ft | 208 kts | 26° |
| 2026-05-04 08:48 | 40.48964 | 8.20522 | 3122 ft | 204 kts | 26° |
| 2026-05-04 08:48 | 40.50226 | 8.21282 | 2815 ft | 200 kts | 26° |
| 2026-05-04 08:48 | 40.51473 | 8.22030 | 2498 ft | 193 kts | 26° |
| 2026-05-04 08:49 | 40.52667 | 8.22743 | 2230 ft | 184 kts | 26° |
| 2026-05-04 08:50 | 40.58592 | 8.26297 | 876 ft | 141 kts | 27° |
| 2026-05-04 08:50 | 40.59473 | 8.26826 | 713 ft | 137 kts | 26° |
| 2026-05-04 08:51 | 40.60336 | 8.27346 | 488 ft | 135 kts | 26° |
| 2026-05-04 08:51 | 40.61180 | 8.27855 | 292 ft | 132 kts | 25° |
| 2026-05-04 08:51 | 40.62019 | 8.28357 | 106 ft | 132 kts | 25° |
| 2026-05-04 08:51 | 40.62761 | 8.28806 | 88 ft | 98 kts | 25° |
| 2026-05-04 08:52 | 40.63225 | 8.29085 | 98 ft | 49 kts | 24° |
| 2026-05-04 08:52 | 40.63403 | 8.29191 | 98 ft | 20 kts | 24° |
| 2026-05-04 08:52 | 40.63533 | 8.29270 | 96 ft | 17 kts | 26° |
| 2026-05-04 08:52 | 40.63646 | 8.29341 | 97 ft | 18 kts | 25° |
| 2026-05-04 08:53 | 40.63747 | 8.29433 | 96 ft | 17 kts | 50° |
| 2026-05-04 08:54 | 40.63328 | 8.29467 | 93 ft | 14 kts | 168° |
| 2026-05-04 08:55 | 40.63259 | 8.29483 | 93 ft | 7 kts | 179° |
| 2026-05-04 08:55 | 40.63203 | 8.29458 | 94 ft | 10 kts | 204° |
| 2026-05-04 08:55 | 40.63135 | 8.29417 | 95 ft | 12 kts | 204° |
| 2026-05-04 08:55 | 40.63053 | 8.29368 | 92 ft | 8 kts | 205° |
| 2026-05-04 08:57 | 40.63001 | 8.29422 | 90 ft | 0 kts | 114° |